Time;durP1;ratioP1;P1;durP2;ratioP2;P2;SDS_P1;SDS_P2;PMS_P1;PMS_P2;Temp;Humidity;BMP_temperature;BMP_pressure;BME280_temperature;BME280_humidity;BME280_pressure;Samples;Min_cycle;Max_cycle;Signal;HPM_P1;HPM_P2
2021/10/03 00:01:19;;;;;;;2.42;2.22;;;17.60;90.10;;;;;;4997555;28;20250;-91
2021/10/03 00:03:47;;;;;;;1.70;1.60;;;17.60;90.30;;;;;;4997996;28;20202;-92
2021/10/03 00:06:13;;;;;;;1.90;1.52;;;17.70;90.60;;;;;;4997666;28;20709;-92
2021/10/03 00:08:39;;;;;;;1.50;1.40;;;17.60;90.70;;;;;;4998003;28;20241;-92
2021/10/03 00:11:06;;;;;;;2.23;1.80;;;17.70;91.10;;;;;;4997637;28;20213;-90
2021/10/03 00:13:33;;;;;;;2.17;2.00;;;17.50;91.20;;;;;;4997554;28;20194;-90
2021/10/03 00:16:00;;;;;;;1.90;1.80;;;17.50;91.40;;;;;;4995170;28;20183;-91
2021/10/03 00:18:26;;;;;;;2.58;2.35;;;17.50;91.50;;;;;;4982082;28;20658;-90
2021/10/03 00:20:52;;;;;;;2.40;2.00;;;17.50;91.70;;;;;;4978718;28;20187;-91
2021/10/03 00:23:19;;;;;;;1.80;1.70;;;17.50;91.80;;;;;;4978798;28;20554;-91
2021/10/03 00:25:45;;;;;;;1.60;1.50;;;17.40;91.80;;;;;;4996164;28;20187;-91
2021/10/03 00:28:11;;;;;;;3.13;1.88;;;17.50;92.10;;;;;;4978353;28;20194;-91
2021/10/03 00:30:39;;;;;;;2.55;1.63;;;17.40;92.20;;;;;;4978894;28;20186;-91
2021/10/03 00:33:05;;;;;;;1.50;1.40;;;17.50;92.50;;;;;;4978668;28;20202;-91
2021/10/03 00:35:31;;;;;;;1.67;1.57;;;17.40;92.40;;;;;;4978844;28;20242;-91
2021/10/03 00:37:59;;;;;;;1.65;1.50;;;17.30;92.80;;;;;;4978350;28;20429;-94
2021/10/03 00:40:26;;;;;;;2.05;1.60;;;17.30;93.10;;;;;;4978054;28;20226;-92
2021/10/03 00:42:52;;;;;;;2.95;1.20;;;17.20;93.50;;;;;;4977257;28;20195;-93
2021/10/03 00:45:18;;;;;;;1.83;1.73;;;17.20;93.80;;;;;;4977662;28;20597;-93
2021/10/03 00:47:44;;;;;;;1.80;1.40;;;17.30;94.00;;;;;;4980590;28;21004;-91
2021/10/03 00:50:13;;;;;;;2.00;1.80;;;17.30;93.90;;;;;;4997050;28;20484;-90
2021/10/03 00:52:41;;;;;;;1.73;1.55;;;17.30;93.90;;;;;;4981243;28;20210;-90
2021/10/03 00:55:10;;;;;;;2.08;1.55;;;17.40;93.90;;;;;;4997793;28;20178;-90
2021/10/03 00:57:37;;;;;;;2.55;1.55;;;17.50;93.80;;;;;;4998141;28;20174;-90
2021/10/03 01:00:07;;;;;;;2.90;1.60;;;17.50;93.50;;;;;;4997108;28;20182;-91
2021/10/03 01:02:33;;;;;;;1.83;1.38;;;17.50;93.30;;;;;;4993351;28;20285;-90
2021/10/03 01:05:03;;;;;;;2.38;1.70;;;17.40;93.30;;;;;;4994268;28;20175;-91
2021/10/03 01:07:29;;;;;;;1.85;1.65;;;17.50;93.30;;;;;;4994775;28;20283;-91
2021/10/03 01:09:55;;;;;;;1.47;1.37;;;17.40;93.00;;;;;;4994652;28;20646;-91
2021/10/03 01:12:21;;;;;;;1.70;1.60;;;17.40;93.10;;;;;;4997740;28;20258;-91
2021/10/03 01:14:46;;;;;;;1.80;1.47;;;17.40;93.80;;;;;;5003066;28;20472;-91
2021/10/03 01:17:12;;;;;;;1.47;1.37;;;17.40;93.10;;;;;;5002880;28;20642;-90
2021/10/03 01:19:38;;;;;;;2.03;1.37;;;17.40;92.90;;;;;;5006713;28;20203;-90
2021/10/03 01:22:05;;;;;;;1.90;1.70;;;17.50;93.00;;;;;;5000663;28;20972;-90
2021/10/03 01:24:34;;;;;;;1.42;1.33;;;17.60;92.80;;;;;;4999450;28;20438;-90
2021/10/03 01:27:03;;;;;;;1.98;1.70;;;17.60;92.70;;;;;;5004437;28;20183;-90
2021/10/03 01:29:31;;;;;;;1.83;1.20;;;17.40;92.70;;;;;;5003358;28;20216;-90
2021/10/03 01:31:57;;;;;;;3.60;1.50;;;17.40;92.80;;;;;;5001219;28;20180;-91
2021/10/03 01:34:23;;;;;;;2.65;1.20;;;17.20;92.00;;;;;;4995015;28;20200;-91
2021/10/03 01:36:49;;;;;;;9.45;1.60;;;17.20;91.90;;;;;;4995028;28;20230;-90
2021/10/03 01:39:15;;;;;;;5.83;1.70;;;17.00;91.70;;;;;;4997796;28;20182;-90
2021/10/03 01:41:41;;;;;;;2.03;1.48;;;16.90;92.00;;;;;;4996929;28;20182;-91
2021/10/03 01:44:14;;;;;;;6.13;1.33;;;16.90;92.00;;;;;;4997085;28;20242;-90
2021/10/03 01:46:41;;;;;;;3.42;1.50;;;16.80;92.20;;;;;;4997654;28;20536;-91
2021/10/03 01:49:07;;;;;;;3.63;1.27;;;16.80;92.60;;;;;;4998089;28;20260;-90
2021/10/03 01:51:33;;;;;;;4.30;1.80;;;16.80;92.60;;;;;;4997203;28;20182;-90
2021/10/03 01:53:59;;;;;;;4.20;1.40;;;16.90;92.50;;;;;;4997430;28;20437;-91
2021/10/03 01:56:26;;;;;;;3.10;1.30;;;16.90;92.40;;;;;;4997198;28;20186;-91
2021/10/03 01:58:58;;;;;;;7.25;1.40;;;16.80;92.20;;;;;;4998321;28;20429;-91
2021/10/03 02:01:36;;;;;;;8.30;1.40;;;16.70;92.50;;;;;;5000776;28;20217;-91
2021/10/03 02:04:06;;;;;;;2.75;1.85;;;16.70;92.80;;;;;;5000810;28;20202;-91
2021/10/03 02:06:40;;;;;;;8.95;1.35;;;16.70;93.00;;;;;;5001197;28;20239;-91
2021/10/03 02:09:05;;;;;;;6.85;1.70;;;16.70;93.10;;;;;;5001198;28;20206;-91
2021/10/03 02:11:31;;;;;;;4.53;1.60;;;16.70;93.10;;;;;;5001013;28;20261;-90
2021/10/03 02:13:57;;;;;;;4.23;1.60;;;16.60;93.10;;;;;;5002889;28;20202;-90
2021/10/03 02:16:22;;;;;;;5.30;1.90;;;16.60;93.40;;;;;;5010475;28;20599;-91
2021/10/03 02:18:48;;;;;;;3.10;2.10;;;16.70;93.50;;;;;;5009683;28;20198;-91
2021/10/03 02:21:15;;;;;;;5.60;2.20;;;16.70;93.60;;;;;;5006671;28;20178;-90
2021/10/03 02:23:44;;;;;;;7.03;1.85;;;16.80;93.40;;;;;;5007339;28;20206;-90
2021/10/03 02:26:11;;;;;;;3.80;1.60;;;16.80;93.40;;;;;;5001543;28;20534;-90
2021/10/03 02:28:36;;;;;;;8.02;1.92;;;16.80;93.30;;;;;;4999631;28;20202;-90
2021/10/03 02:31:07;;;;;;;7.03;1.63;;;16.90;93.50;;;;;;5000245;28;20182;-91
2021/10/03 02:33:34;;;;;;;2.55;1.50;;;16.90;93.10;;;;;;5000161;28;20209;-91
2021/10/03 02:36:00;;;;;;;6.03;1.77;;;16.80;92.90;;;;;;5000215;28;20650;-91
2021/10/03 02:38:26;;;;;;;7.20;1.77;;;16.80;93.20;;;;;;4999950;28;20186;-91
2021/10/03 02:40:54;;;;;;;7.00;2.20;;;16.60;93.20;;;;;;4983477;28;20206;-91
2021/10/03 02:43:20;;;;;;;4.15;1.88;;;16.40;93.40;;;;;;5000293;28;20206;-91
2021/10/03 02:45:52;;;;;;;1.45;1.20;;;16.40;94.10;;;;;;4999922;28;20648;-91
2021/10/03 02:48:19;;;;;;;5.00;1.40;;;16.20;94.00;;;;;;4999801;28;20214;-91
2021/10/03 02:50:47;;;;;;;1.70;1.50;;;16.00;93.60;;;;;;5000165;28;20467;-91
2021/10/03 02:53:15;;;;;;;1.60;1.50;;;15.80;93.30;;;;;;4999415;28;20229;-91
2021/10/03 02:55:41;;;;;;;1.45;1.20;;;15.80;93.50;;;;;;5017250;28;20269;-91
2021/10/03 02:58:07;;;;;;;3.43;1.30;;;15.70;93.70;;;;;;4986380;28;20259;-91
2021/10/03 03:00:35;;;;;;;2.35;1.58;;;15.70;93.90;;;;;;4979841;28;20509;-91
2021/10/03 03:03:01;;;;;;;1.60;1.50;;;15.60;94.00;;;;;;4979885;28;20199;-91
2021/10/03 03:05:27;;;;;;;1.73;1.40;;;15.70;94.30;;;;;;4989247;28;20581;-91
2021/10/03 03:07:52;;;;;;;3.43;1.90;;;15.70;94.40;;;;;;4991146;28;20257;-91
2021/10/03 03:10:18;;;;;;;3.93;1.37;;;15.60;94.40;;;;;;4989139;28;20306;-91
2021/10/03 03:12:44;;;;;;;1.40;1.30;;;15.60;94.70;;;;;;5029231;28;20220;-91
2021/10/03 03:15:14;;;;;;;5.40;1.50;;;15.70;94.80;;;;;;4998404;28;20179;-91
2021/10/03 03:17:40;;;;;;;3.65;1.80;;;15.70;95.00;;;;;;4982797;28;20521;-91
2021/10/03 03:20:09;;;;;;;4.35;1.52;;;15.70;95.10;;;;;;4997828;28;20638;-91
2021/10/03 03:22:35;;;;;;;1.85;1.65;;;15.70;95.20;;;;;;4980501;28;20210;-91
2021/10/03 03:25:03;;;;;;;1.73;1.40;;;15.70;95.30;;;;;;4980165;28;20282;-91
2021/10/03 03:27:29;;;;;;;7.68;1.90;;;15.70;95.30;;;;;;4979846;28;20183;-91
2021/10/03 03:29:55;;;;;;;1.80;1.50;;;15.70;95.30;;;;;;4993627;28;20273;-91
2021/10/03 03:32:20;;;;;;;5.30;1.80;;;15.80;95.40;;;;;;4999083;28;20174;-92
2021/10/03 03:34:46;;;;;;;12.33;2.47;;;15.90;95.40;;;;;;5000327;28;20258;-91
2021/10/03 03:37:12;;;;;;;4.03;2.07;;;15.80;95.90;;;;;;5000195;28;20209;-91
2021/10/03 03:39:37;;;;;;;3.30;2.20;;;15.80;95.20;;;;;;5001233;28;20521;-91
2021/10/03 03:42:03;;;;;;;6.70;3.60;;;15.90;95.20;;;;;;4999499;28;20209;-90
2021/10/03 03:44:31;;;;;;;4.03;2.43;;;16.00;94.90;;;;;;4998645;28;20199;-91
2021/10/03 03:46:57;;;;;;;8.98;3.13;;;15.90;94.80;;;;;;4998996;28;20422;-91
2021/10/03 03:49:23;;;;;;;11.88;5.25;;;16.10;94.70;;;;;;5005563;28;20279;-92
2021/10/03 03:51:49;;;;;;;5.63;4.93;;;16.20;93.60;;;;;;5021463;28;20201;-91
2021/10/03 03:54:23;;;;;;;6.03;4.43;;;16.20;92.80;;;;;;5021794;28;20468;-90
2021/10/03 03:56:49;;;;;;;6.18;3.30;;;16.00;92.50;;;;;;5021869;28;20171;-90
2021/10/03 03:59:14;;;;;;;4.40;3.38;;;16.00;92.70;;;;;;5021642;28;20174;-90
2021/10/03 04:01:40;;;;;;;6.63;3.10;;;15.90;93.00;;;;;;5021536;28;20206;-91
2021/10/03 04:04:06;;;;;;;9.10;3.90;;;15.90;93.40;;;;;;5021423;28;20207;-91
2021/10/03 04:06:32;;;;;;;10.57;4.17;;;15.80;93.60;;;;;;5012000;28;20248;-91
2021/10/03 04:08:57;;;;;;;5.50;3.03;;;15.90;93.80;;;;;;5003348;28;20697;-92
2021/10/03 04:11:23;;;;;;;5.07;2.93;;;15.90;93.80;;;;;;5019411;28;20194;-92
2021/10/03 04:13:49;;;;;;;3.90;2.50;;;15.80;93.80;;;;;;4986546;28;21018;-92
2021/10/03 04:16:15;;;;;;;6.40;2.10;;;16.00;94.00;;;;;;4998699;28;20190;-92
2021/10/03 04:18:40;;;;;;;5.27;2.53;;;16.00;93.40;;;;;;4981603;28;20221;-91
2021/10/03 04:21:06;;;;;;;4.90;2.03;;;16.10;92.40;;;;;;4979556;28;20442;-91
2021/10/03 04:23:32;;;;;;;5.20;2.30;;;16.00;91.90;;;;;;4994003;28;20205;-91
2021/10/03 04:25:58;;;;;;;3.73;1.77;;;16.00;92.00;;;;;;4999189;28;20429;-91
2021/10/03 04:28:27;;;;;;;4.73;3.17;;;16.00;91.90;;;;;;4998203;28;20583;-90
2021/10/03 04:30:53;;;;;;;4.13;2.33;;;16.00;92.00;;;;;;4998581;28;20265;-91
2021/10/03 04:33:19;;;;;;;2.55;2.00;;;16.00;92.30;;;;;;4998941;28;20285;-91
2021/10/03 04:35:44;;;;;;;3.40;2.37;;;16.00;92.40;;;;;;4994962;28;20201;-91
2021/10/03 04:38:10;;;;;;;4.40;2.30;;;16.00;92.40;;;;;;4979431;28;20175;-91
2021/10/03 04:40:36;;;;;;;2.33;2.13;;;16.00;92.50;;;;;;4988651;28;20199;-92
2021/10/03 04:43:02;;;;;;;3.00;2.17;;;16.00;92.60;;;;;;5015075;28;20665;-91
2021/10/03 04:45:28;;;;;;;3.55;1.70;;;15.90;92.70;;;;;;4997922;28;20703;-91
2021/10/03 04:47:54;;;;;;;1.67;1.57;;;16.10;92.50;;;;;;4997973;28;20178;-91
2021/10/03 04:50:19;;;;;;;4.13;1.70;;;16.00;92.10;;;;;;4998713;28;20496;-92
2021/10/03 04:52:45;;;;;;;3.50;1.60;;;15.90;92.00;;;;;;4998793;28;20191;-92
2021/10/03 04:55:12;;;;;;;5.60;2.50;;;15.80;92.00;;;;;;4998407;28;20175;-91
2021/10/03 04:57:39;;;;;;;3.78;1.90;;;15.90;92.40;;;;;;4995173;28;20186;-91
2021/10/03 05:00:07;;;;;;;1.85;1.70;;;15.80;92.30;;;;;;4994842;28;20559;-92
2021/10/03 05:02:32;;;;;;;3.08;1.67;;;15.70;92.70;;;;;;4994356;28;20198;-92
2021/10/03 05:04:58;;;;;;;7.27;1.63;;;15.70;93.00;;;;;;4994664;28;20187;-91
2021/10/03 05:07:24;;;;;;;4.30;2.70;;;15.90;92.90;;;;;;4994593;28;20197;-91
2021/10/03 05:09:50;;;;;;;2.80;1.73;;;15.80;92.60;;;;;;4995112;28;20211;-91
2021/10/03 05:12:16;;;;;;;2.00;1.80;;;15.80;92.60;;;;;;4994191;28;20454;-91
2021/10/03 05:14:42;;;;;;;4.30;1.80;;;15.60;92.80;;;;;;4994776;28;20465;-91
2021/10/03 05:17:07;;;;;;;2.23;1.90;;;15.70;93.30;;;;;;4995182;28;20438;-91
2021/10/03 05:19:33;;;;;;;4.10;2.50;;;15.60;93.20;;;;;;4993979;28;20213;-91
2021/10/03 05:21:59;;;;;;;3.30;2.40;;;15.50;93.50;;;;;;4994316;28;20206;-91
2021/10/03 05:24:25;;;;;;;6.28;3.45;;;15.50;93.80;;;;;;4994371;28;20261;-91
2021/10/03 05:26:51;;;;;;;7.37;4.03;;;15.50;94.00;;;;;;4995224;28;20187;-91
2021/10/03 05:29:17;;;;;;;7.63;3.73;;;15.40;94.10;;;;;;4994837;28;20640;-91
2021/10/03 05:31:43;;;;;;;10.20;2.85;;;15.30;94.10;;;;;;4994138;28;20605;-91
2021/10/03 05:34:09;;;;;;;2.55;2.35;;;15.10;93.80;;;;;;4995627;28;20199;-90
2021/10/03 05:36:35;;;;;;;4.33;2.13;;;15.00;93.70;;;;;;4997746;28;20534;-91
2021/10/03 05:39:01;;;;;;;5.72;2.17;;;15.00;93.80;;;;;;4982028;28;20187;-90
2021/10/03 05:41:28;;;;;;;5.75;2.60;;;15.00;93.80;;;;;;4981126;28;20194;-90
2021/10/03 05:43:54;;;;;;;3.78;1.92;;;14.80;93.30;;;;;;4981790;28;20333;-90
2021/10/03 05:46:20;;;;;;;4.20;2.80;;;14.70;93.40;;;;;;4999402;28;20202;-91
2021/10/03 05:48:45;;;;;;;4.63;3.38;;;14.70;93.50;;;;;;4982274;28;20464;-92
2021/10/03 05:51:11;;;;;;;4.30;2.30;;;14.70;93.60;;;;;;4999527;28;20191;-89
2021/10/03 05:53:37;;;;;;;2.55;2.20;;;14.70;93.90;;;;;;4981816;28;20199;-91
2021/10/03 05:56:16;;;;;;;10.50;3.42;;;14.70;94.10;;;;;;4981966;28;20620;-91
2021/10/03 05:58:41;;;;;;;5.50;2.78;;;14.60;94.00;;;;;;4982133;28;20177;-92
2021/10/03 06:01:07;;;;;;;4.73;2.80;;;14.40;94.00;;;;;;4982453;28;20187;-91
2021/10/03 06:03:33;;;;;;;6.07;3.17;;;14.40;94.10;;;;;;4981581;28;20687;-92
2021/10/03 06:06:03;;;;;;;9.80;2.70;;;14.50;94.40;;;;;;4981923;28;20426;-91
2021/10/03 06:08:29;;;;;;;5.47;2.63;;;14.40;94.40;;;;;;4981533;28;20199;-91
2021/10/03 06:10:54;;;;;;;5.80;2.67;;;14.30;94.70;;;;;;4982287;28;20221;-91
2021/10/03 06:13:20;;;;;;;4.57;2.77;;;14.40;94.80;;;;;;4982852;28;20226;-92
2021/10/03 06:15:46;;;;;;;4.30;2.77;;;14.40;94.90;;;;;;4985300;28;20179;-90
2021/10/03 06:18:15;;;;;;;8.70;2.57;;;14.40;95.00;;;;;;4982034;28;20199;-91
2021/10/03 06:20:42;;;;;;;4.72;3.45;;;14.30;95.40;;;;;;4982341;28;20175;-90
2021/10/03 06:23:09;;;;;;;5.53;2.75;;;14.30;95.60;;;;;;4996998;28;20199;-91
2021/10/03 06:25:35;;;;;;;3.83;2.80;;;14.30;95.70;;;;;;4987951;28;20262;-92
2021/10/03 06:28:00;;;;;;;5.25;3.58;;;14.30;95.80;;;;;;5003019;28;20233;-93
2021/10/03 06:30:26;;;;;;;5.83;2.80;;;14.40;95.90;;;;;;5001894;28;20206;-92
2021/10/03 06:32:54;;;;;;;9.40;3.57;;;14.40;96.00;;;;;;5002604;28;20794;-92
2021/10/03 06:35:22;;;;;;;10.40;4.47;;;14.40;95.90;;;;;;5001938;28;20189;-93
2021/10/03 06:37:48;;;;;;;7.30;4.43;;;14.40;96.00;;;;;;4983406;28;20237;-94
2021/10/03 06:40:14;;;;;;;9.52;4.65;;;14.30;96.10;;;;;;4984341;28;20210;-93
2021/10/03 06:42:39;;;;;;;5.38;3.97;;;14.40;96.10;;;;;;4997779;28;20203;-92
2021/10/03 06:45:13;;;;;;;12.90;5.40;;;14.40;96.10;;;;;;4983234;28;20198;-93
2021/10/03 06:47:39;;;;;;;10.50;4.97;;;14.40;96.00;;;;;;5004243;28;20171;-94
2021/10/03 06:50:08;;;;;;;8.90;5.47;;;14.30;96.00;;;;;;4989432;28;20219;-92
2021/10/03 06:52:34;;;;;;;7.85;5.00;;;14.20;95.80;;;;;;4998997;28;20207;-92
2021/10/03 06:55:00;;;;;;;7.47;4.57;;;14.20;95.90;;;;;;4982984;28;20627;-92
2021/10/03 06:57:26;;;;;;;10.27;5.17;;;14.20;96.00;;;;;;4983192;28;20218;-92
2021/10/03 06:59:51;;;;;;;10.33;6.60;;;14.20;96.10;;;;;;4981833;28;20242;-92
2021/10/03 07:02:24;;;;;;;5.93;4.87;;;14.20;96.20;;;;;;4983152;28;20183;-91
2021/10/03 07:04:50;;;;;;;10.68;5.50;;;14.10;96.20;;;;;;4999261;28;20936;-92
2021/10/03 07:07:16;;;;;;;11.77;6.55;;;14.10;96.20;;;;;;5001247;28;20197;-92
2021/10/03 07:09:42;;;;;;;13.40;6.50;;;14.00;96.20;;;;;;5000845;28;20207;-93
2021/10/03 07:12:08;;;;;;;9.87;6.10;;;14.00;96.30;;;;;;5000914;28;20186;-92
2021/10/03 07:14:34;;;;;;;12.07;5.90;;;14.00;96.30;;;;;;4998547;28;20525;-92
2021/10/03 07:17:00;;;;;;;7.25;5.70;;;14.10;96.50;;;;;;4997837;28;20203;-92
2021/10/03 07:19:26;;;;;;;12.23;5.50;;;14.20;96.20;;;;;;4981488;28;20238;-92
2021/10/03 07:21:52;;;;;;;15.17;6.63;;;14.10;96.10;;;;;;4981511;28;20187;-93
2021/10/03 07:24:17;;;;;;;17.83;8.60;;;14.10;96.20;;;;;;4981214;28;20450;-93
2021/10/03 07:26:43;;;;;;;29.33;16.37;;;14.10;96.20;;;;;;4983073;28;20426;-93
2021/10/03 07:29:09;;;;;;;26.03;13.80;;;14.10;96.20;;;;;;4989140;28;20206;-91
2021/10/03 07:31:35;;;;;;;19.43;11.10;;;14.10;96.10;;;;;;5000494;28;20174;-91
2021/10/03 07:34:01;;;;;;;14.98;9.75;;;14.10;96.00;;;;;;5000842;28;20222;-91
2021/10/03 07:36:26;;;;;;;20.23;9.50;;;13.90;96.00;;;;;;4997461;28;20697;-91
2021/10/03 07:38:52;;;;;;;15.80;9.93;;;13.90;96.20;;;;;;4981121;28;20206;-92
2021/10/03 07:41:20;;;;;;;13.80;9.50;;;14.00;96.20;;;;;;4984038;28;20469;-91
2021/10/03 07:43:47;;;;;;;18.88;9.05;;;14.00;96.30;;;;;;4984998;28;20291;-91
2021/10/03 07:46:15;;;;;;;20.33;9.60;;;14.10;96.20;;;;;;4981511;28;20187;-91
2021/10/03 07:48:41;;;;;;;20.15;10.25;;;14.20;95.90;;;;;;4984954;28;20202;-91
2021/10/03 07:51:07;;;;;;;25.57;10.30;;;14.20;95.50;;;;;;4999696;28;20179;-91
2021/10/03 07:53:34;;;;;;;21.75;8.75;;;14.20;95.30;;;;;;4984551;28;20481;-91
2021/10/03 07:56:00;;;;;;;23.37;8.70;;;14.20;95.10;;;;;;5013669;28;20177;-91
2021/10/03 07:58:25;;;;;;;22.17;7.80;;;14.20;94.70;;;;;;5019043;28;20178;-91
2021/10/03 08:00:51;;;;;;;13.97;7.33;;;14.10;94.70;;;;;;4987808;28;20178;-92
2021/10/03 08:03:17;;;;;;;13.90;7.53;;;14.10;95.00;;;;;;4983807;28;20512;-91
2021/10/03 08:05:44;;;;;;;13.80;6.60;;;14.00;95.30;;;;;;5009297;28;20277;-92
2021/10/03 08:08:10;;;;;;;19.02;8.05;;;14.00;95.80;;;;;;4998952;28;20197;-91
2021/10/03 08:10:37;;;;;;;17.77;7.55;;;14.00;96.20;;;;;;4996628;28;20179;-91
2021/10/03 08:13:04;;;;;;;22.25;7.63;;;14.00;96.50;;;;;;4999812;28;20210;-91
2021/10/03 08:15:30;;;;;;;19.88;7.00;;;14.10;96.90;;;;;;4979517;28;20263;-91
2021/10/03 08:17:55;;;;;;;18.17;6.50;;;14.10;97.00;;;;;;4980565;28;20226;-92
2021/10/03 08:20:22;;;;;;;14.83;6.90;;;14.00;97.00;;;;;;4984552;28;20209;-91
2021/10/03 08:22:48;;;;;;;13.73;7.43;;;14.10;97.10;;;;;;4999048;28;20426;-91
2021/10/03 08:25:14;;;;;;;17.80;7.40;;;14.20;97.60;;;;;;4983734;28;20202;-91
2021/10/03 08:27:40;;;;;;;14.40;7.85;;;14.20;97.80;;;;;;4998316;28;20266;-92
2021/10/03 08:30:09;;;;;;;16.70;7.80;;;14.30;98.00;;;;;;4997481;28;20362;-91
2021/10/03 08:32:35;;;;;;;17.85;7.63;;;14.40;98.10;;;;;;5015691;28;20441;-92
2021/10/03 08:35:07;;;;;;;22.48;7.95;;;14.60;97.80;;;;;;4984327;28;20183;-91
2021/10/03 08:37:35;;;;;;;16.58;8.15;;;14.60;97.40;;;;;;5001847;28;20191;-90
2021/10/03 08:40:04;;;;;;;24.30;9.30;;;14.80;96.80;;;;;;5010700;28;20186;-91
2021/10/03 08:42:30;;;;;;;23.55;8.50;;;14.80;96.20;;;;;;5018680;28;20213;-91
2021/10/03 08:44:55;;;;;;;17.50;9.27;;;14.90;95.50;;;;;;5029990;28;20179;-89
2021/10/03 08:47:25;;;;;;;18.07;7.60;;;14.80;94.90;;;;;;4991966;28;20194;-93
2021/10/03 08:49:54;;;;;;;22.65;8.20;;;14.90;94.40;;;;;;4996299;28;20207;-91
2021/10/03 08:52:24;;;;;;;22.45;11.25;;;14.90;94.00;;;;;;5000673;28;20238;-89
2021/10/03 08:54:51;;;;;;;29.65;13.73;;;14.90;93.40;;;;;;4982978;28;20175;-89
2021/10/03 08:57:16;;;;;;;35.45;18.50;;;14.90;93.30;;;;;;4997251;28;20185;-91
2021/10/03 09:00:09;;;;;;;49.10;18.77;;;15.00;93.50;;;;;;5000462;28;20273;-90
2021/10/03 09:02:55;;;;;;;52.78;19.20;;;15.00;93.40;;;;;;5005493;28;20267;-90
2021/10/03 09:05:22;;;;;;;60.08;18.48;;;15.00;93.40;;;;;;5004624;28;20183;-90
2021/10/03 09:08:04;;;;;;;35.80;16.60;;;15.20;93.40;;;;;;4994637;28;20185;-92
2021/10/03 09:10:51;;;;;;;63.80;21.08;;;14.90;93.20;;;;;;5003951;28;20646;-91
2021/10/03 09:13:18;;;;;;;46.03;18.75;;;14.80;93.50;;;;;;5004044;28;20272;-90
2021/10/03 09:15:45;;;;;;;46.55;19.95;;;14.80;94.60;;;;;;4996486;28;20270;-91
2021/10/03 09:18:11;;;;;;;43.75;19.38;;;15.00;94.10;;;;;;5004223;28;20212;-92
2021/10/03 09:20:37;;;;;;;25.50;13.73;;;15.00;94.00;;;;;;5015528;28;20182;-91
2021/10/03 09:23:17;;;;;;;30.27;15.45;;;15.10;93.90;;;;;;5023869;28;20216;-91
2021/10/03 09:25:52;;;;;;;26.17;13.95;;;15.10;93.80;;;;;;5010109;28;20181;-90
2021/10/03 09:28:24;;;;;;;24.70;13.02;;;15.20;93.50;;;;;;5020192;28;20189;-90
2021/10/03 09:31:10;;;;;;;23.23;12.27;;;15.30;93.60;;;;;;5003584;28;20171;-88
2021/10/03 09:33:38;;;;;;;24.73;15.05;;;15.30;93.20;;;;;;5012052;28;20202;-89
2021/10/03 09:36:05;;;;;;;25.75;11.93;;;15.20;93.10;;;;;;5017816;28;20171;-89
2021/10/03 09:38:45;;;;;;;22.48;12.00;;;15.20;93.20;;;;;;5010369;28;20182;-91
2021/10/03 09:41:29;;;;;;;26.35;11.23;;;15.30;93.30;;;;;;4994697;28;20222;-90
2021/10/03 09:44:00;;;;;;;25.77;11.55;;;15.40;93.20;;;;;;5011135;28;20207;-90
2021/10/03 09:46:36;;;;;;;25.17;12.07;;;15.40;93.20;;;;;;4984715;28;20237;-88
2021/10/03 09:49:11;;;;;;;30.52;13.35;;;15.40;93.10;;;;;;4997050;28;20217;-90
2021/10/03 09:51:41;;;;;;;26.05;14.15;;;15.50;93.10;;;;;;4992569;28;20206;-91
2021/10/03 09:54:09;;;;;;;35.33;15.02;;;15.40;93.00;;;;;;4999060;28;20564;-90
2021/10/03 09:56:38;;;;;;;26.15;13.35;;;15.50;93.00;;;;;;5003249;28;20179;-90
2021/10/03 09:59:11;;;;;;;25.02;13.55;;;15.60;92.80;;;;;;5002770;28;20186;-91
2021/10/03 10:01:46;;;;;;;17.40;10.90;;;15.60;92.60;;;;;;4960291;29;20189;-91
2021/10/03 10:04:16;;;;;;;20.13;11.90;;;15.70;92.50;;;;;;4960603;29;20290;-91
2021/10/03 10:06:43;;;;;;;19.10;11.48;;;15.80;92.20;;;;;;4960164;29;20212;-90
2021/10/03 10:09:19;;;;;;;15.93;9.07;;;15.70;91.90;;;;;;4961169;29;20303;-91
2021/10/03 10:12:07;;;;;;;16.23;9.07;;;15.70;91.80;;;;;;4959468;29;20180;-91
2021/10/03 10:14:39;;;;;;;14.93;8.80;;;15.80;91.80;;;;;;4959193;29;20212;-90
2021/10/03 10:17:30;;;;;;;15.15;8.18;;;15.80;91.60;;;;;;4958868;29;20184;-89
2021/10/03 10:20:00;;;;;;;12.02;8.02;;;15.70;91.40;;;;;;4942077;29;20275;-90
2021/10/03 10:22:28;;;;;;;11.52;7.95;;;15.50;91.30;;;;;;4943354;29;20276;-90
2021/10/03 10:25:06;;;;;;;13.35;8.13;;;15.60;91.50;;;;;;4942554;29;20277;-90
2021/10/03 10:27:33;;;;;;;18.75;11.70;;;15.50;91.70;;;;;;4943768;29;20199;-90
2021/10/03 10:30:07;;;;;;;22.73;11.82;;;15.50;91.80;;;;;;4946292;29;20768;-89
2021/10/03 10:32:53;;;;;;;20.63;10.80;;;15.40;91.60;;;;;;4940850;29;20208;-90
2021/10/03 10:35:29;;;;;;;24.90;13.25;;;15.40;91.50;;;;;;4944340;29;20693;-90
2021/10/03 10:37:55;;;;;;;27.80;14.45;;;15.30;91.80;;;;;;4943658;29;20180;-90
2021/10/03 10:40:21;;;;;;;30.33;15.40;;;15.30;92.00;;;;;;4944381;29;20204;-90
2021/10/03 10:43:19;;;;;;;35.78;17.50;;;15.40;92.00;;;;;;4941966;29;20200;-87
2021/10/03 10:45:52;;;;;;;42.03;22.40;;;15.20;92.10;;;;;;4957877;29;20749;-86
2021/10/03 10:48:18;;;;;;;44.42;19.85;;;15.20;92.40;;;;;;4958353;29;20196;-86
2021/10/03 10:50:44;;;;;;;45.15;24.13;;;15.10;92.90;;;;;;4957028;29;20593;-87
2021/10/03 10:53:30;;;;;;;45.23;21.60;;;15.10;93.30;;;;;;4952639;29;20201;-87
2021/10/03 10:56:11;;;;;;;46.90;22.90;;;14.90;93.50;;;;;;4942493;29;20219;-87
2021/10/03 10:58:38;;;;;;;43.70;21.63;;;14.90;93.90;;;;;;4984937;28;20182;-87
2021/10/03 11:01:13;;;;;;;35.53;17.60;;;14.80;94.10;;;;;;4987556;28;20186;-87
2021/10/03 11:03:42;;;;;;;40.00;18.67;;;14.80;94.30;;;;;;4980474;28;20225;-87
2021/10/03 11:06:08;;;;;;;34.25;16.90;;;14.80;94.40;;;;;;4981030;28;20635;-87
2021/10/03 11:08:58;;;;;;;19.40;11.20;;;14.70;94.50;;;;;;5005877;28;20232;-87
2021/10/03 11:11:38;;;;;;;24.88;10.65;;;14.60;94.50;;;;;;5009075;28;20329;-87
2021/10/03 11:14:10;;;;;;;16.02;8.70;;;14.60;94.60;;;;;;4964722;28;20225;-87
2021/10/03 11:16:37;;;;;;;16.00;8.80;;;14.60;94.70;;;;;;4981848;28;20211;-88
2021/10/03 11:19:16;;;;;;;13.43;7.70;;;14.60;94.70;;;;;;4980720;28;20195;-87
2021/10/03 11:21:47;;;;;;;13.90;6.45;;;14.60;94.80;;;;;;4979603;28;20198;-87
2021/10/03 11:24:21;;;;;;;12.38;7.00;;;14.40;94.50;;;;;;5000065;28;20567;-87
2021/10/03 11:26:50;;;;;;;11.57;7.50;;;14.20;94.40;;;;;;5000495;28;20244;-87
2021/10/03 11:29:18;;;;;;;8.43;4.38;;;14.20;94.80;;;;;;4997086;28;20314;-87
2021/10/03 11:31:47;;;;;;;4.82;2.85;;;14.10;94.50;;;;;;4998420;28;20183;-87
2021/10/03 11:34:33;;;;;;;6.75;2.80;;;13.90;94.40;;;;;;5001370;28;20242;-87
2021/10/03 11:37:25;;;;;;;4.03;2.13;;;13.80;94.30;;;;;;4998831;28;20185;-86
2021/10/03 11:39:54;;;;;;;3.15;1.80;;;13.80;94.50;;;;;;4998624;28;20253;-87
2021/10/03 11:42:37;;;;;;;3.22;2.20;;;13.70;94.40;;;;;;5010878;28;20234;-87
2021/10/03 11:45:10;;;;;;;2.10;1.90;;;13.70;94.60;;;;;;5016284;28;20226;-87
2021/10/03 11:47:53;;;;;;;2.53;1.95;;;13.90;95.00;;;;;;5016801;28;20233;-87
2021/10/03 11:50:37;;;;;;;3.90;2.65;;;13.90;95.00;;;;;;5022838;28;20210;-87
2021/10/03 11:53:24;;;;;;;3.05;2.85;;;13.70;94.70;;;;;;5017537;28;20211;-88
2021/10/03 11:55:53;;;;;;;3.25;2.60;;;13.80;94.90;;;;;;5003186;28;20285;-87
2021/10/03 11:58:22;;;;;;;9.77;3.30;;;13.70;95.10;;;;;;4982440;28;20189;-87
2021/10/03 12:01:03;;;;;;;4.85;3.40;;;13.80;95.20;;;;;;4986614;28;20175;-87
2021/10/03 12:03:29;;;;;;;6.10;3.05;;;13.90;95.40;;;;;;4984569;28;20227;-89
2021/10/03 12:05:57;;;;;;;4.25;3.15;;;13.90;95.40;;;;;;4986033;28;20190;-88
2021/10/03 12:08:23;;;;;;;3.75;3.25;;;13.80;95.00;;;;;;4989715;28;20681;-89
2021/10/03 12:10:50;;;;;;;3.38;3.13;;;13.80;95.10;;;;;;4981122;28;20639;-88
2021/10/03 12:13:24;;;;;;;7.35;4.53;;;13.90;95.30;;;;;;4982578;28;20206;-88
2021/10/03 12:15:50;;;;;;;4.93;4.43;;;13.90;95.30;;;;;;4997279;28;20185;-89
2021/10/03 12:18:29;;;;;;;6.20;5.03;;;13.90;95.40;;;;;;5015009;28;20191;-89
2021/10/03 12:21:27;;;;;;;6.78;5.28;;;13.90;95.40;;;;;;4991014;28;20209;-89
2021/10/03 12:24:04;;;;;;;7.13;6.43;;;13.90;95.50;;;;;;5001607;28;20198;-89
2021/10/03 12:26:37;;;;;;;7.03;4.97;;;13.80;95.30;;;;;;4991802;28;20209;-89
2021/10/03 12:29:05;;;;;;;6.00;3.60;;;13.90;95.30;;;;;;4999845;28;20229;-89
2021/10/03 12:32:03;;;;;;;4.00;3.15;;;13.70;95.10;;;;;;4984840;28;20183;-89
2021/10/03 12:34:41;;;;;;;6.97;3.90;;;13.70;95.30;;;;;;4992777;28;20562;-88
2021/10/03 12:37:14;;;;;;;5.93;4.22;;;13.70;95.20;;;;;;4987177;28;20245;-88
2021/10/03 12:39:42;;;;;;;5.10;2.90;;;13.70;95.40;;;;;;4992063;28;20187;-88
2021/10/03 12:42:11;;;;;;;4.15;3.83;;;13.70;95.40;;;;;;4987774;28;20179;-88
2021/10/03 12:44:39;;;;;;;2.50;2.25;;;13.70;95.20;;;;;;4996043;28;20185;-89
2021/10/03 12:47:06;;;;;;;4.82;2.20;;;13.60;94.50;;;;;;5011372;28;20183;-89
2021/10/03 12:49:32;;;;;;;6.72;2.53;;;13.50;93.20;;;;;;5012694;28;20210;-88